sensor_id;sensor_type;location;lat;lon;timestamp;P1;durP1;ratioP1;P2;durP2;ratioP2
11514;SDS011;5814;41.936;25.556;2024-03-23T00:55:40;26.90;;;25.33;;
11514;SDS011;5814;41.936;25.556;2024-03-23T00:58:06;27.30;;;25.70;;
11514;SDS011;5814;41.936;25.556;2024-03-23T01:00:31;28.50;;;26.83;;
11514;SDS011;5814;41.936;25.556;2024-03-23T01:02:57;27.30;;;25.77;;
11514;SDS011;5814;41.936;25.556;2024-03-23T01:05:22;28.53;;;26.67;;
11514;SDS011;5814;41.936;25.556;2024-03-23T01:07:48;27.13;;;25.73;;
11514;SDS011;5814;41.936;25.556;2024-03-23T01:10:13;27.90;;;26.30;;
11514;SDS011;5814;41.936;25.556;2024-03-23T01:12:39;26.37;;;24.87;;
11514;SDS011;5814;41.936;25.556;2024-03-23T01:15:04;26.37;;;24.87;;
11514;SDS011;5814;41.936;25.556;2024-03-23T01:17:30;30.37;;;28.13;;
11514;SDS011;5814;41.936;25.556;2024-03-23T01:19:56;31.50;;;29.00;;
11514;SDS011;5814;41.936;25.556;2024-03-23T01:22:21;32.30;;;29.47;;
11514;SDS011;5814;41.936;25.556;2024-03-23T01:24:46;32.47;;;29.73;;
11514;SDS011;5814;41.936;25.556;2024-03-23T01:27:12;31.37;;;29.17;;
11514;SDS011;5814;41.936;25.556;2024-03-23T01:29:37;31.93;;;29.87;;
11514;SDS011;5814;41.936;25.556;2024-03-23T01:32:04;34.07;;;31.37;;
11514;SDS011;5814;41.936;25.556;2024-03-23T01:34:30;38.47;;;35.27;;
11514;SDS011;5814;41.936;25.556;2024-03-23T01:36:55;44.67;;;40.83;;
11514;SDS011;5814;41.936;25.556;2024-03-23T01:39:21;45.73;;;41.47;;
11514;SDS011;5814;41.936;25.556;2024-03-23T01:41:46;46.27;;;42.30;;
11514;SDS011;5814;41.936;25.556;2024-03-23T01:44:12;44.97;;;41.63;;
11514;SDS011;5814;41.936;25.556;2024-03-23T01:46:38;41.80;;;38.63;;
11514;SDS011;5814;41.936;25.556;2024-03-23T01:49:04;44.20;;;40.57;;
11514;SDS011;5814;41.936;25.556;2024-03-23T01:51:30;41.93;;;38.93;;
11514;SDS011;5814;41.936;25.556;2024-03-23T01:53:57;39.80;;;37.50;;
11514;SDS011;5814;41.936;25.556;2024-03-23T01:56:27;37.10;;;34.90;;
11514;SDS011;5814;41.936;25.556;2024-03-23T01:58:53;36.73;;;34.77;;
11514;SDS011;5814;41.936;25.556;2024-03-23T02:01:19;40.03;;;37.63;;
11514;SDS011;5814;41.936;25.556;2024-03-23T02:03:44;39.03;;;36.73;;
11514;SDS011;5814;41.936;25.556;2024-03-23T02:06:10;41.50;;;38.87;;
11514;SDS011;5814;41.936;25.556;2024-03-23T02:08:36;43.20;;;40.30;;
11514;SDS011;5814;41.936;25.556;2024-03-23T02:11:01;41.73;;;39.37;;
11514;SDS011;5814;41.936;25.556;2024-03-23T02:13:27;40.87;;;37.97;;
11514;SDS011;5814;41.936;25.556;2024-03-23T02:15:52;39.50;;;37.20;;
11514;SDS011;5814;41.936;25.556;2024-03-23T02:18:18;42.93;;;40.20;;
11514;SDS011;5814;41.936;25.556;2024-03-23T02:20:43;36.73;;;34.63;;
11514;SDS011;5814;41.936;25.556;2024-03-23T02:23:13;39.00;;;36.73;;
11514;SDS011;5814;41.936;25.556;2024-03-23T02:25:43;37.80;;;35.43;;
11514;SDS011;5814;41.936;25.556;2024-03-23T02:28:08;36.73;;;34.83;;
11514;SDS011;5814;41.936;25.556;2024-03-23T02:30:34;38.40;;;36.27;;
11514;SDS011;5814;41.936;25.556;2024-03-23T02:32:59;35.47;;;33.47;;
11514;SDS011;5814;41.936;25.556;2024-03-23T02:35:25;39.03;;;36.83;;
11514;SDS011;5814;41.936;25.556;2024-03-23T02:37:50;36.20;;;34.23;;
11514;SDS011;5814;41.936;25.556;2024-03-23T02:40:16;38.03;;;35.73;;
11514;SDS011;5814;41.936;25.556;2024-03-23T02:42:42;40.50;;;38.17;;
11514;SDS011;5814;41.936;25.556;2024-03-23T02:45:08;38.20;;;36.17;;
11514;SDS011;5814;41.936;25.556;2024-03-23T02:47:34;39.37;;;37.17;;
11514;SDS011;5814;41.936;25.556;2024-03-23T02:49:59;40.23;;;37.43;;
11514;SDS011;5814;41.936;25.556;2024-03-23T02:52:25;41.20;;;38.30;;
11514;SDS011;5814;41.936;25.556;2024-03-23T02:54:50;37.80;;;35.30;;
11514;SDS011;5814;41.936;25.556;2024-03-23T02:57:16;41.03;;;38.40;;
11514;SDS011;5814;41.936;25.556;2024-03-23T02:59:41;40.90;;;38.37;;
11514;SDS011;5814;41.936;25.556;2024-03-23T03:02:07;39.87;;;37.40;;
11514;SDS011;5814;41.936;25.556;2024-03-23T03:04:33;38.50;;;35.83;;
11514;SDS011;5814;41.936;25.556;2024-03-23T03:06:58;35.47;;;33.07;;
11514;SDS011;5814;41.936;25.556;2024-03-23T03:09:24;32.53;;;30.57;;
11514;SDS011;5814;41.936;25.556;2024-03-23T03:11:49;33.17;;;30.77;;
11514;SDS011;5814;41.936;25.556;2024-03-23T03:14:15;32.67;;;30.80;;
11514;SDS011;5814;41.936;25.556;2024-03-23T03:16:40;31.93;;;30.23;;
11514;SDS011;5814;41.936;25.556;2024-03-23T03:19:05;31.60;;;30.10;;
11514;SDS011;5814;41.936;25.556;2024-03-23T03:21:31;31.03;;;29.43;;
11514;SDS011;5814;41.936;25.556;2024-03-23T03:23:57;30.47;;;28.80;;
11514;SDS011;5814;41.936;25.556;2024-03-23T03:26:23;29.43;;;27.83;;
11514;SDS011;5814;41.936;25.556;2024-03-23T03:28:49;28.77;;;27.27;;
11514;SDS011;5814;41.936;25.556;2024-03-23T03:31:15;27.93;;;26.33;;
11514;SDS011;5814;41.936;25.556;2024-03-23T03:33:41;24.17;;;22.97;;
11514;SDS011;5814;41.936;25.556;2024-03-23T03:36:07;26.43;;;24.87;;
11514;SDS011;5814;41.936;25.556;2024-03-23T03:38:33;24.67;;;23.27;;
11514;SDS011;5814;41.936;25.556;2024-03-23T03:41:00;26.77;;;25.27;;
11514;SDS011;5814;41.936;25.556;2024-03-23T03:43:26;26.53;;;25.23;;
11514;SDS011;5814;41.936;25.556;2024-03-23T03:45:52;26.33;;;24.87;;
11514;SDS011;5814;41.936;25.556;2024-03-23T03:48:18;27.07;;;25.60;;
11514;SDS011;5814;41.936;25.556;2024-03-23T03:50:44;24.90;;;23.60;;
11514;SDS011;5814;41.936;25.556;2024-03-23T03:53:09;25.10;;;23.90;;
11514;SDS011;5814;41.936;25.556;2024-03-23T03:55:35;25.10;;;23.73;;
11514;SDS011;5814;41.936;25.556;2024-03-23T03:58:00;26.87;;;25.47;;
11514;SDS011;5814;41.936;25.556;2024-03-23T04:00:26;25.87;;;24.47;;
11514;SDS011;5814;41.936;25.556;2024-03-23T04:02:51;39.07;;;35.57;;
11514;SDS011;5814;41.936;25.556;2024-03-23T04:05:17;29.93;;;27.97;;
11514;SDS011;5814;41.936;25.556;2024-03-23T04:07:42;33.43;;;31.10;;
11514;SDS011;5814;41.936;25.556;2024-03-23T04:10:08;42.30;;;39.07;;
11514;SDS011;5814;41.936;25.556;2024-03-23T04:12:34;27.70;;;25.87;;
11514;SDS011;5814;41.936;25.556;2024-03-23T04:14:59;30.73;;;28.53;;
11514;SDS011;5814;41.936;25.556;2024-03-23T04:17:26;25.40;;;23.87;;
11514;SDS011;5814;41.936;25.556;2024-03-23T04:19:57;28.97;;;26.87;;
11514;SDS011;5814;41.936;25.556;2024-03-23T04:22:23;25.90;;;24.43;;
11514;SDS011;5814;41.936;25.556;2024-03-23T04:24:55;29.60;;;27.60;;
11514;SDS011;5814;41.936;25.556;2024-03-23T04:27:23;31.13;;;29.13;;
11514;SDS011;5814;41.936;25.556;2024-03-23T04:29:49;30.07;;;28.27;;
11514;SDS011;5814;41.936;25.556;2024-03-23T04:32:15;28.20;;;26.60;;
11514;SDS011;5814;41.936;25.556;2024-03-23T04:34:41;30.70;;;28.80;;
11514;SDS011;5814;41.936;25.556;2024-03-23T04:37:07;32.07;;;30.07;;
11514;SDS011;5814;41.936;25.556;2024-03-23T04:39:33;32.37;;;30.23;;
11514;SDS011;5814;41.936;25.556;2024-03-23T04:41:58;31.23;;;29.27;;
11514;SDS011;5814;41.936;25.556;2024-03-23T04:44:24;30.67;;;28.57;;
11514;SDS011;5814;41.936;25.556;2024-03-23T04:46:49;30.37;;;28.53;;
11514;SDS011;5814;41.936;25.556;2024-03-23T04:49:15;32.70;;;30.40;;
11514;SDS011;5814;41.936;25.556;2024-03-23T04:51:41;30.90;;;29.00;;
11514;SDS011;5814;41.936;25.556;2024-03-23T04:54:11;33.67;;;31.17;;
11514;SDS011;5814;41.936;25.556;2024-03-23T04:56:37;32.97;;;30.67;;
11514;SDS011;5814;41.936;25.556;2024-03-23T04:59:02;31.23;;;29.10;;
11514;SDS011;5814;41.936;25.556;2024-03-23T05:01:30;32.17;;;29.93;;
11514;SDS011;5814;41.936;25.556;2024-03-23T05:03:58;34.47;;;32.27;;
11514;SDS011;5814;41.936;25.556;2024-03-23T05:06:24;33.13;;;31.03;;
11514;SDS011;5814;41.936;25.556;2024-03-23T05:08:50;41.63;;;38.63;;
11514;SDS011;5814;41.936;25.556;2024-03-23T05:11:16;44.03;;;40.73;;
11514;SDS011;5814;41.936;25.556;2024-03-23T05:13:42;43.07;;;39.60;;
11514;SDS011;5814;41.936;25.556;2024-03-23T05:16:08;42.60;;;39.70;;
11514;SDS011;5814;41.936;25.556;2024-03-23T05:18:34;42.63;;;39.70;;
11514;SDS011;5814;41.936;25.556;2024-03-23T05:21:00;42.97;;;39.57;;
11514;SDS011;5814;41.936;25.556;2024-03-23T05:23:26;43.13;;;40.30;;
11514;SDS011;5814;41.936;25.556;2024-03-23T05:25:53;44.30;;;40.67;;
11514;SDS011;5814;41.936;25.556;2024-03-23T05:28:18;44.50;;;41.47;;
11514;SDS011;5814;41.936;25.556;2024-03-23T05:30:49;43.73;;;40.90;;
11514;SDS011;5814;41.936;25.556;2024-03-23T05:33:19;45.40;;;42.50;;
11514;SDS011;5814;41.936;25.556;2024-03-23T05:35:45;50.60;;;47.30;;
11514;SDS011;5814;41.936;25.556;2024-03-23T05:38:11;48.73;;;45.37;;
11514;SDS011;5814;41.936;25.556;2024-03-23T05:40:36;44.73;;;41.40;;
11514;SDS011;5814;41.936;25.556;2024-03-23T05:43:05;37.37;;;34.67;;
11514;SDS011;5814;41.936;25.556;2024-03-23T05:45:34;39.30;;;36.10;;
11514;SDS011;5814;41.936;25.556;2024-03-23T05:48:00;34.67;;;32.40;;
11514;SDS011;5814;41.936;25.556;2024-03-23T05:50:25;34.73;;;32.40;;
11514;SDS011;5814;41.936;25.556;2024-03-23T05:52:51;34.40;;;32.03;;
11514;SDS011;5814;41.936;25.556;2024-03-23T05:55:16;33.00;;;30.90;;
11514;SDS011;5814;41.936;25.556;2024-03-23T05:57:41;35.27;;;32.37;;
11514;SDS011;5814;41.936;25.556;2024-03-23T06:00:07;30.30;;;28.37;;
11514;SDS011;5814;41.936;25.556;2024-03-23T06:02:40;29.30;;;27.07;;
11514;SDS011;5814;41.936;25.556;2024-03-23T06:05:12;28.93;;;27.00;;
11514;SDS011;5814;41.936;25.556;2024-03-23T06:07:37;28.30;;;26.40;;
11514;SDS011;5814;41.936;25.556;2024-03-23T06:10:04;24.43;;;22.57;;
11514;SDS011;5814;41.936;25.556;2024-03-23T06:12:30;21.17;;;19.63;;
11514;SDS011;5814;41.936;25.556;2024-03-23T06:14:56;20.67;;;19.57;;
11514;SDS011;5814;41.936;25.556;2024-03-23T06:17:22;20.50;;;19.40;;
11514;SDS011;5814;41.936;25.556;2024-03-23T06:19:47;22.37;;;20.77;;
11514;SDS011;5814;41.936;25.556;2024-03-23T06:22:12;26.30;;;23.90;;
11514;SDS011;5814;41.936;25.556;2024-03-23T06:24:38;20.17;;;18.50;;
11514;SDS011;5814;41.936;25.556;2024-03-23T06:27:03;19.63;;;18.23;;
11514;SDS011;5814;41.936;25.556;2024-03-23T06:29:29;17.20;;;15.83;;
11514;SDS011;5814;41.936;25.556;2024-03-23T06:31:55;16.83;;;15.60;;
11514;SDS011;5814;41.936;25.556;2024-03-23T06:34:20;16.13;;;14.80;;
11514;SDS011;5814;41.936;25.556;2024-03-23T06:36:47;23.40;;;21.00;;
11514;SDS011;5814;41.936;25.556;2024-03-23T06:39:14;16.27;;;14.83;;
11514;SDS011;5814;41.936;25.556;2024-03-23T06:41:44;16.00;;;14.43;;
11514;SDS011;5814;41.936;25.556;2024-03-23T06:44:17;15.83;;;14.53;;
11514;SDS011;5814;41.936;25.556;2024-03-23T06:46:43;15.20;;;13.80;;
11514;SDS011;5814;41.936;25.556;2024-03-23T06:49:09;15.00;;;13.93;;
11514;SDS011;5814;41.936;25.556;2024-03-23T06:51:35;13.83;;;12.83;;
11514;SDS011;5814;41.936;25.556;2024-03-23T06:54:02;15.73;;;14.30;;
11514;SDS011;5814;41.936;25.556;2024-03-23T06:56:28;14.97;;;13.80;;
11514;SDS011;5814;41.936;25.556;2024-03-23T06:58:54;19.07;;;17.67;;
11514;SDS011;5814;41.936;25.556;2024-03-23T07:01:19;16.87;;;15.37;;
11514;SDS011;5814;41.936;25.556;2024-03-23T07:03:45;13.77;;;12.87;;
11514;SDS011;5814;41.936;25.556;2024-03-23T07:06:10;14.23;;;13.23;;
11514;SDS011;5814;41.936;25.556;2024-03-23T07:08:36;13.73;;;12.57;;
11514;SDS011;5814;41.936;25.556;2024-03-23T07:11:01;13.00;;;12.00;;
11514;SDS011;5814;41.936;25.556;2024-03-23T07:13:27;13.60;;;12.70;;
11514;SDS011;5814;41.936;25.556;2024-03-23T07:15:53;13.33;;;12.37;;
11514;SDS011;5814;41.936;25.556;2024-03-23T07:18:22;19.53;;;17.77;;
11514;SDS011;5814;41.936;25.556;2024-03-23T07:23:23;13.47;;;12.47;;
11514;SDS011;5814;41.936;25.556;2024-03-23T07:28:24;13.30;;;12.17;;
11514;SDS011;5814;41.936;25.556;2024-03-23T07:31:06;13.07;;;12.17;;
11514;SDS011;5814;41.936;25.556;2024-03-23T07:33:43;13.13;;;12.13;;
11514;SDS011;5814;41.936;25.556;2024-03-23T07:36:13;14.30;;;13.03;;
11514;SDS011;5814;41.936;25.556;2024-03-23T07:38:42;19.23;;;17.77;;
11514;SDS011;5814;41.936;25.556;2024-03-23T07:41:19;14.90;;;13.60;;
11514;SDS011;5814;41.936;25.556;2024-03-23T07:43:46;12.87;;;11.80;;
11514;SDS011;5814;41.936;25.556;2024-03-23T07:46:13;13.20;;;12.20;;
11514;SDS011;5814;41.936;25.556;2024-03-23T07:48:39;15.93;;;14.73;;
11514;SDS011;5814;41.936;25.556;2024-03-23T07:51:16;14.80;;;13.60;;
11514;SDS011;5814;41.936;25.556;2024-03-23T07:53:43;13.65;;;12.65;;
11514;SDS011;5814;41.936;25.556;2024-03-23T07:56:11;14.82;;;13.40;;
11514;SDS011;5814;41.936;25.556;2024-03-23T07:58:36;14.32;;;13.02;;
11514;SDS011;5814;41.936;25.556;2024-03-23T08:01:03;14.90;;;12.27;;
11514;SDS011;5814;41.936;25.556;2024-03-23T08:03:30;13.52;;;12.13;;
11514;SDS011;5814;41.936;25.556;2024-03-23T08:05:56;14.82;;;13.50;;
11514;SDS011;5814;41.936;25.556;2024-03-23T08:08:21;12.38;;;11.45;;
11514;SDS011;5814;41.936;25.556;2024-03-23T08:10:50;12.77;;;11.68;;
11514;SDS011;5814;41.936;25.556;2024-03-23T08:13:17;15.73;;;14.32;;
11514;SDS011;5814;41.936;25.556;2024-03-23T08:15:43;14.48;;;12.80;;
11514;SDS011;5814;41.936;25.556;2024-03-23T08:18:10;14.18;;;12.80;;
11514;SDS011;5814;41.936;25.556;2024-03-23T08:20:36;13.77;;;12.63;;
11514;SDS011;5814;41.936;25.556;2024-03-23T08:23:02;12.43;;;11.43;;
11514;SDS011;5814;41.936;25.556;2024-03-23T08:25:30;12.65;;;11.57;;
11514;SDS011;5814;41.936;25.556;2024-03-23T08:27:56;12.95;;;11.98;;
11514;SDS011;5814;41.936;25.556;2024-03-23T08:30:22;13.63;;;12.43;;
11514;SDS011;5814;41.936;25.556;2024-03-23T08:32:47;13.75;;;12.32;;
11514;SDS011;5814;41.936;25.556;2024-03-23T08:35:13;12.27;;;11.38;;
11514;SDS011;5814;41.936;25.556;2024-03-23T08:37:39;11.65;;;10.88;;
11514;SDS011;5814;41.936;25.556;2024-03-23T08:40:04;11.98;;;11.07;;
11514;SDS011;5814;41.936;25.556;2024-03-23T08:42:30;11.95;;;10.93;;
11514;SDS011;5814;41.936;25.556;2024-03-23T08:44:56;12.55;;;11.45;;
11514;SDS011;5814;41.936;25.556;2024-03-23T08:47:21;11.73;;;10.88;;
11514;SDS011;5814;41.936;25.556;2024-03-23T08:49:47;11.80;;;11.00;;
11514;SDS011;5814;41.936;25.556;2024-03-23T08:52:12;11.27;;;10.38;;
11514;SDS011;5814;41.936;25.556;2024-03-23T08:54:38;11.38;;;10.27;;
11514;SDS011;5814;41.936;25.556;2024-03-23T08:57:03;11.82;;;10.93;;
11514;SDS011;5814;41.936;25.556;2024-03-23T08:59:29;11.65;;;10.85;;
11514;SDS011;5814;41.936;25.556;2024-03-23T09:01:54;11.45;;;10.57;;
11514;SDS011;5814;41.936;25.556;2024-03-23T09:04:20;14.18;;;13.02;;
11514;SDS011;5814;41.936;25.556;2024-03-23T09:06:46;12.52;;;11.65;;
11514;SDS011;5814;41.936;25.556;2024-03-23T09:09:12;12.63;;;11.73;;
11514;SDS011;5814;41.936;25.556;2024-03-23T09:11:37;12.90;;;11.45;;
11514;SDS011;5814;41.936;25.556;2024-03-23T09:14:03;11.00;;;10.30;;
11514;SDS011;5814;41.936;25.556;2024-03-23T09:16:29;11.40;;;10.70;;
11514;SDS011;5814;41.936;25.556;2024-03-23T09:18:55;11.35;;;10.55;;
11514;SDS011;5814;41.936;25.556;2024-03-23T09:21:20;14.45;;;12.27;;
11514;SDS011;5814;41.936;25.556;2024-03-23T09:23:46;11.27;;;10.43;;
11514;SDS011;5814;41.936;25.556;2024-03-23T09:26:11;12.10;;;11.10;;
11514;SDS011;5814;41.936;25.556;2024-03-23T09:28:37;13.80;;;11.48;;
11514;SDS011;5814;41.936;25.556;2024-03-23T09:31:03;11.07;;;10.27;;
11514;SDS011;5814;41.936;25.556;2024-03-23T09:33:29;12.32;;;11.13;;
11514;SDS011;5814;41.936;25.556;2024-03-23T09:35:55;11.75;;;10.85;;
11514;SDS011;5814;41.936;25.556;2024-03-23T09:38:21;10.85;;;10.15;;
11514;SDS011;5814;41.936;25.556;2024-03-23T09:40:48;11.80;;;10.80;;
11514;SDS011;5814;41.936;25.556;2024-03-23T09:43:18;11.13;;;10.32;;
11514;SDS011;5814;41.936;25.556;2024-03-23T09:45:44;11.85;;;10.70;;
11514;SDS011;5814;41.936;25.556;2024-03-23T09:48:10;11.48;;;10.68;;
11514;SDS011;5814;41.936;25.556;2024-03-23T09:50:37;11.70;;;10.85;;
11514;SDS011;5814;41.936;25.556;2024-03-23T09:53:04;11.13;;;10.20;;
11514;SDS011;5814;41.936;25.556;2024-03-23T09:55:31;11.18;;;10.38;;
11514;SDS011;5814;41.936;25.556;2024-03-23T09:57:57;10.27;;;9.35;;
11514;SDS011;5814;41.936;25.556;2024-03-23T10:00:23;10.30;;;9.70;;
11514;SDS011;5814;41.936;25.556;2024-03-23T10:02:48;9.73;;;9.02;;
11514;SDS011;5814;41.936;25.556;2024-03-23T10:05:20;10.23;;;9.10;;
11514;SDS011;5814;41.936;25.556;2024-03-23T10:07:52;10.85;;;9.95;;
11514;SDS011;5814;41.936;25.556;2024-03-23T10:10:17;9.88;;;9.23;;
11514;SDS011;5814;41.936;25.556;2024-03-23T10:12:43;9.82;;;9.18;;
11514;SDS011;5814;41.936;25.556;2024-03-23T10:15:15;11.38;;;10.40;;
11514;SDS011;5814;41.936;25.556;2024-03-23T10:17:43;11.82;;;11.05;;
11514;SDS011;5814;41.936;25.556;2024-03-23T10:20:10;12.35;;;11.38;;
11514;SDS011;5814;41.936;25.556;2024-03-23T10:22:37;11.70;;;10.90;;
11514;SDS011;5814;41.936;25.556;2024-03-23T10:25:10;10.40;;;9.90;;
11514;SDS011;5814;41.936;25.556;2024-03-23T10:27:36;10.50;;;9.90;;
11514;SDS011;5814;41.936;25.556;2024-03-23T10:30:11;11.23;;;10.52;;
11514;SDS011;5814;41.936;25.556;2024-03-23T10:32:38;10.95;;;10.25;;
11514;SDS011;5814;41.936;25.556;2024-03-23T10:35:13;10.05;;;9.55;;
11514;SDS011;5814;41.936;25.556;2024-03-23T10:37:49;11.48;;;10.68;;
11514;SDS011;5814;41.936;25.556;2024-03-23T10:40:16;10.48;;;9.95;;
11514;SDS011;5814;41.936;25.556;2024-03-23T10:42:43;10.18;;;9.48;;
11514;SDS011;5814;41.936;25.556;2024-03-23T10:45:09;10.05;;;9.48;;
11514;SDS011;5814;41.936;25.556;2024-03-23T10:47:36;10.30;;;9.70;;
11514;SDS011;5814;41.936;25.556;2024-03-23T10:50:05;9.57;;;8.95;;
11514;SDS011;5814;41.936;25.556;2024-03-23T10:52:32;11.02;;;10.23;;
11514;SDS011;5814;41.936;25.556;2024-03-23T10:54:58;11.35;;;10.75;;
11514;SDS011;5814;41.936;25.556;2024-03-23T10:57:29;11.65;;;10.85;;
11514;SDS011;5814;41.936;25.556;2024-03-23T10:59:59;10.57;;;9.98;;
11514;SDS011;5814;41.936;25.556;2024-03-23T11:02:27;9.50;;;8.90;;
11514;SDS011;5814;41.936;25.556;2024-03-23T11:04:55;10.57;;;9.77;;
11514;SDS011;5814;41.936;25.556;2024-03-23T11:09:52;10.52;;;9.70;;
11514;SDS011;5814;41.936;25.556;2024-03-23T11:14:56;9.70;;;9.20;;
11514;SDS011;5814;41.936;25.556;2024-03-23T11:17:25;10.05;;;9.23;;
11514;SDS011;5814;41.936;25.556;2024-03-23T11:19:58;9.70;;;9.10;;
11514;SDS011;5814;41.936;25.556;2024-03-23T11:25:02;8.98;;;8.48;;
11514;SDS011;5814;41.936;25.556;2024-03-23T11:27:52;9.50;;;8.90;;
11514;SDS011;5814;41.936;25.556;2024-03-23T11:30:20;9.70;;;9.10;;
11514;SDS011;5814;41.936;25.556;2024-03-23T11:32:50;9.35;;;8.73;;
11514;SDS011;5814;41.936;25.556;2024-03-23T11:35:29;9.93;;;9.32;;
11514;SDS011;5814;41.936;25.556;2024-03-23T11:40:39;9.63;;;9.02;;
11514;SDS011;5814;41.936;25.556;2024-03-23T11:43:09;9.43;;;8.93;;
11514;SDS011;5814;41.936;25.556;2024-03-23T11:45:42;8.60;;;8.10;;
11514;SDS011;5814;41.936;25.556;2024-03-23T11:48:12;10.35;;;9.70;;
11514;SDS011;5814;41.936;25.556;2024-03-23T11:50:39;9.63;;;9.13;;
11514;SDS011;5814;41.936;25.556;2024-03-23T11:53:11;8.73;;;8.32;;
11514;SDS011;5814;41.936;25.556;2024-03-23T11:55:54;8.40;;;7.90;;
11514;SDS011;5814;41.936;25.556;2024-03-23T11:58:22;8.48;;;8.07;;
11514;SDS011;5814;41.936;25.556;2024-03-23T12:00:59;8.55;;;8.15;;
11514;SDS011;5814;41.936;25.556;2024-03-23T12:03:27;8.30;;;7.78;;
11514;SDS011;5814;41.936;25.556;2024-03-23T12:06:00;9.00;;;8.50;;
11514;SDS011;5814;41.936;25.556;2024-03-23T12:08:30;8.75;;;8.25;;
11514;SDS011;5814;41.936;25.556;2024-03-23T12:11:31;8.88;;;8.48;;
11514;SDS011;5814;41.936;25.556;2024-03-23T12:13:50;9.75;;;9.25;;
11514;SDS011;5814;41.936;25.556;2024-03-23T12:16:18;8.43;;;7.93;;
11514;SDS011;5814;41.936;25.556;2024-03-23T12:18:51;9.38;;;8.75;;
11514;SDS011;5814;41.936;25.556;2024-03-23T12:21:17;9.32;;;8.65;;
11514;SDS011;5814;41.936;25.556;2024-03-23T12:23:43;8.68;;;8.18;;
11514;SDS011;5814;41.936;25.556;2024-03-23T12:26:11;8.80;;;8.30;;
11514;SDS011;5814;41.936;25.556;2024-03-23T12:28:37;9.10;;;8.40;;
11514;SDS011;5814;41.936;25.556;2024-03-23T12:31:03;8.80;;;8.40;;
11514;SDS011;5814;41.936;25.556;2024-03-23T12:33:29;8.38;;;7.90;;
11514;SDS011;5814;41.936;25.556;2024-03-23T12:35:54;8.82;;;8.40;;
11514;SDS011;5814;41.936;25.556;2024-03-23T12:38:20;8.25;;;7.80;;
11514;SDS011;5814;41.936;25.556;2024-03-23T12:40:48;8.80;;;8.25;;
11514;SDS011;5814;41.936;25.556;2024-03-23T12:43:15;8.40;;;7.90;;
11514;SDS011;5814;41.936;25.556;2024-03-23T12:45:41;8.57;;;8.18;;
11514;SDS011;5814;41.936;25.556;2024-03-23T12:48:11;8.27;;;7.78;;
11514;SDS011;5814;41.936;25.556;2024-03-23T12:50:37;7.95;;;7.55;;
11514;SDS011;5814;41.936;25.556;2024-03-23T12:53:03;9.10;;;8.50;;
11514;SDS011;5814;41.936;25.556;2024-03-23T12:55:28;9.82;;;9.20;;
11514;SDS011;5814;41.936;25.556;2024-03-23T12:57:54;8.90;;;8.35;;
11514;SDS011;5814;41.936;25.556;2024-03-23T13:00:20;8.45;;;8.05;;
11514;SDS011;5814;41.936;25.556;2024-03-23T13:02:45;8.57;;;8.18;;
11514;SDS011;5814;41.936;25.556;2024-03-23T13:05:11;8.60;;;8.15;;
11514;SDS011;5814;41.936;25.556;2024-03-23T13:07:36;8.45;;;7.95;;
11514;SDS011;5814;41.936;25.556;2024-03-23T13:10:04;8.48;;;8.07;;
11514;SDS011;5814;41.936;25.556;2024-03-23T13:12:30;8.35;;;7.95;;
11514;SDS011;5814;41.936;25.556;2024-03-23T13:14:57;7.85;;;7.50;;
11514;SDS011;5814;41.936;25.556;2024-03-23T13:17:23;8.57;;;8.10;;
11514;SDS011;5814;41.936;25.556;2024-03-23T13:19:48;9.07;;;8.57;;
11514;SDS011;5814;41.936;25.556;2024-03-23T13:22:14;9.60;;;9.15;;
11514;SDS011;5814;41.936;25.556;2024-03-23T13:24:40;8.60;;;8.20;;
11514;SDS011;5814;41.936;25.556;2024-03-23T13:27:05;9.02;;;8.60;;
11514;SDS011;5814;41.936;25.556;2024-03-23T13:29:33;8.50;;;8.10;;
11514;SDS011;5814;41.936;25.556;2024-03-23T13:32:02;8.55;;;8.07;;
11514;SDS011;5814;41.936;25.556;2024-03-23T13:34:28;8.27;;;7.88;;
11514;SDS011;5814;41.936;25.556;2024-03-23T13:36:54;8.57;;;8.07;;
11514;SDS011;5814;41.936;25.556;2024-03-23T13:39:23;8.80;;;8.20;;
11514;SDS011;5814;41.936;25.556;2024-03-23T13:41:48;8.60;;;8.10;;
11514;SDS011;5814;41.936;25.556;2024-03-23T13:44:14;8.13;;;7.60;;
11514;SDS011;5814;41.936;25.556;2024-03-23T13:46:40;7.65;;;7.15;;
11514;SDS011;5814;41.936;25.556;2024-03-23T13:49:16;8.02;;;7.70;;
11514;SDS011;5814;41.936;25.556;2024-03-23T13:51:46;8.38;;;7.97;;
11514;SDS011;5814;41.936;25.556;2024-03-23T13:54:11;8.02;;;7.63;;
11514;SDS011;5814;41.936;25.556;2024-03-23T13:56:37;7.97;;;7.57;;
11514;SDS011;5814;41.936;25.556;2024-03-23T13:59:02;8.60;;;8.20;;
11514;SDS011;5814;41.936;25.556;2024-03-23T14:01:28;7.95;;;7.60;;
11514;SDS011;5814;41.936;25.556;2024-03-23T14:03:53;7.65;;;7.25;;
11514;SDS011;5814;41.936;25.556;2024-03-23T14:06:20;7.60;;;7.30;;
11514;SDS011;5814;41.936;25.556;2024-03-23T14:08:46;8.18;;;7.78;;
11514;SDS011;5814;41.936;25.556;2024-03-23T14:11:14;8.60;;;8.20;;
11514;SDS011;5814;41.936;25.556;2024-03-23T14:13:40;7.68;;;7.22;;
11514;SDS011;5814;41.936;25.556;2024-03-23T14:16:05;7.95;;;7.55;;
11514;SDS011;5814;41.936;25.556;2024-03-23T14:18:31;8.63;;;8.13;;
11514;SDS011;5814;41.936;25.556;2024-03-23T14:21:00;7.93;;;7.53;;
11514;SDS011;5814;41.936;25.556;2024-03-23T14:23:26;7.80;;;7.47;;
11514;SDS011;5814;41.936;25.556;2024-03-23T14:25:56;9.38;;;8.88;;
11514;SDS011;5814;41.936;25.556;2024-03-23T14:28:22;8.18;;;7.68;;
11514;SDS011;5814;41.936;25.556;2024-03-23T14:30:49;8.88;;;8.38;;
11514;SDS011;5814;41.936;25.556;2024-03-23T14:33:16;7.80;;;7.40;;
11514;SDS011;5814;41.936;25.556;2024-03-23T14:35:42;8.88;;;8.38;;
11514;SDS011;5814;41.936;25.556;2024-03-23T14:38:07;8.00;;;7.68;;
11514;SDS011;5814;41.936;25.556;2024-03-23T14:40:33;7.63;;;7.22;;
11514;SDS011;5814;41.936;25.556;2024-03-23T14:42:59;7.43;;;7.05;;
11514;SDS011;5814;41.936;25.556;2024-03-23T14:45:24;8.15;;;7.70;;
11514;SDS011;5814;41.936;25.556;2024-03-23T14:47:50;7.95;;;7.53;;
11514;SDS011;5814;41.936;25.556;2024-03-23T14:50:16;8.20;;;7.55;;
11514;SDS011;5814;41.936;25.556;2024-03-23T14:52:45;8.10;;;7.70;;
11514;SDS011;5814;41.936;25.556;2024-03-23T14:55:11;7.50;;;7.20;;
11514;SDS011;5814;41.936;25.556;2024-03-23T14:57:37;7.70;;;7.30;;
11514;SDS011;5814;41.936;25.556;2024-03-23T15:00:05;7.90;;;7.60;;
11514;SDS011;5814;41.936;25.556;2024-03-23T15:02:33;8.90;;;8.40;;
11514;SDS011;5814;41.936;25.556;2024-03-23T15:04:59;8.35;;;7.90;;
11514;SDS011;5814;41.936;25.556;2024-03-23T15:07:25;7.88;;;7.47;;
11514;SDS011;5814;41.936;25.556;2024-03-23T15:09:50;8.25;;;7.85;;
11514;SDS011;5814;41.936;25.556;2024-03-23T15:12:16;8.02;;;7.63;;
11514;SDS011;5814;41.936;25.556;2024-03-23T15:14:41;7.90;;;7.50;;
11514;SDS011;5814;41.936;25.556;2024-03-23T15:17:07;7.60;;;7.30;;
11514;SDS011;5814;41.936;25.556;2024-03-23T15:19:34;7.80;;;7.45;;
11514;SDS011;5814;41.936;25.556;2024-03-23T15:21:59;10.88;;;10.18;;
11514;SDS011;5814;41.936;25.556;2024-03-23T15:24:25;8.40;;;7.90;;
11514;SDS011;5814;41.936;25.556;2024-03-23T15:26:51;8.45;;;8.05;;
11514;SDS011;5814;41.936;25.556;2024-03-23T15:29:17;8.35;;;7.85;;
11514;SDS011;5814;41.936;25.556;2024-03-23T15:31:43;13.75;;;12.75;;
11514;SDS011;5814;41.936;25.556;2024-03-23T15:34:10;8.70;;;8.20;;
11514;SDS011;5814;41.936;25.556;2024-03-23T15:36:36;11.85;;;11.10;;
11514;SDS011;5814;41.936;25.556;2024-03-23T15:39:03;8.57;;;8.05;;